Time;durP1;ratioP1;P1;durP2;ratioP2;P2;SDS_P1;SDS_P2;PMS_P1;PMS_P2;Temp;Humidity;BMP_temperature;BMP_pressure;BME280_temperature;BME280_humidity;BME280_pressure;Samples;Min_cycle;Max_cycle;Signal;HPM_P1;HPM_P2
2023/06/28 00:01:00;;;;;;;7.05;3.58;;;21.00;99.90;;;;;;5050105;28;20390;-50
2023/06/28 00:03:27;;;;;;;7.40;3.00;;;19.20;99.90;;;;;;5050065;28;20028;-57
2023/06/28 00:05:52;;;;;;;7.25;3.70;;;18.20;99.90;;;;;;5049980;28;20056;-55
2023/06/28 00:08:18;;;;;;;10.13;4.20;;;18.20;99.90;;;;;;5049845;28;20505;-46
2023/06/28 00:10:44;;;;;;;5.85;3.50;;;18.20;99.90;;;;;;5053586;28;20040;-49
2023/06/28 00:13:09;;;;;;;12.88;4.15;;;18.20;99.90;;;;;;5053803;28;20017;-50
2023/06/28 00:15:35;;;;;;;9.55;3.75;;;18.20;99.90;;;;;;5053591;28;20045;-51
2023/06/28 00:18:02;;;;;;;8.45;3.40;;;18.30;99.90;;;;;;5053869;28;20029;-52
2023/06/28 00:20:28;;;;;;;7.88;3.75;;;18.20;99.90;;;;;;5053582;28;20025;-49
2023/06/28 00:22:54;;;;;;;11.32;4.00;;;18.20;99.90;;;;;;5053899;28;20067;-52
2023/06/28 00:25:20;;;;;;;11.55;4.20;;;18.20;99.90;;;;;;5053535;28;20429;-55
2023/06/28 00:27:46;;;;;;;9.43;3.10;;;18.20;99.90;;;;;;5053550;28;20389;-50
2023/06/28 00:30:12;;;;;;;8.95;3.45;;;18.30;99.90;;;;;;5053319;28;20102;-49
2023/06/28 00:32:38;;;;;;;6.25;3.55;;;18.30;99.90;;;;;;5053487;28;20023;-47
2023/06/28 00:35:05;;;;;;;9.95;4.35;;;18.30;99.90;;;;;;5053498;28;20028;-51
2023/06/28 00:37:32;;;;;;;6.55;3.65;;;18.30;99.90;;;;;;5053330;28;20052;-51
2023/06/28 00:39:58;;;;;;;7.25;3.65;;;19.30;99.90;;;;;;5053209;28;20025;-45
2023/06/28 00:42:23;;;;;;;8.48;3.40;;;18.40;99.90;;;;;;5053319;28;20432;-48
2023/06/28 00:44:49;;;;;;;7.55;3.45;;;18.40;99.90;;;;;;5053305;28;20478;-54
2023/06/28 00:47:15;;;;;;;6.10;3.42;;;17.20;99.90;;;;;;5052999;28;20032;-49
2023/06/28 00:49:42;;;;;;;8.95;4.00;;;18.20;99.90;;;;;;5053104;28;20029;-55
2023/06/28 00:52:11;;;;;;;7.72;3.47;;;18.30;99.90;;;;;;5053163;28;20029;-52
2023/06/28 00:54:37;;;;;;;12.57;3.80;;;18.40;99.90;;;;;;5052924;28;20374;-50
2023/06/28 00:57:03;;;;;;;5.90;3.15;;;18.40;99.90;;;;;;5051769;28;20028;-49
2023/06/28 00:59:30;;;;;;;6.03;3.45;;;18.40;99.90;;;;;;5053006;28;20029;-48
2023/06/28 01:01:55;;;;;;;6.88;3.38;;;16.10;99.90;;;;;;5052896;28;20025;-52
2023/06/28 01:04:21;;;;;;;8.18;3.58;;;18.40;99.90;;;;;;5053054;28;20039;-53
2023/06/28 01:06:54;;;;;;;7.57;3.53;;;19.40;99.90;;;;;;5052762;28;20017;-47
2023/06/28 01:09:21;;;;;;;7.75;3.83;;;18.30;99.90;;;;;;5052929;28;20041;-52
2023/06/28 01:11:52;;;;;;;9.32;4.38;;;18.40;99.90;;;;;;5052334;28;20403;-48
2023/06/28 01:14:19;;;;;;;9.57;3.78;;;18.60;99.90;;;;;;5052093;28;20021;-47
2023/06/28 01:16:49;;;;;;;5.88;3.72;;;18.40;99.90;;;;;;5052489;28;20037;-53
2023/06/28 01:19:16;;;;;;;10.10;3.80;;;18.40;99.90;;;;;;5052660;28;20040;-53
2023/06/28 01:21:47;;;;;;;10.48;4.35;;;18.40;99.90;;;;;;5051768;28;20029;-46
2023/06/28 01:24:14;;;;;;;7.57;4.15;;;18.40;99.90;;;;;;5052425;28;20092;-49
2023/06/28 01:26:40;;;;;;;8.00;4.32;;;19.80;99.90;;;;;;5052609;28;20764;-49
2023/06/28 01:29:07;;;;;;;9.90;4.20;;;18.40;99.90;;;;;;5051892;28;20021;-52
2023/06/28 01:31:34;;;;;;;8.70;4.88;;;18.40;99.90;;;;;;5052294;28;20029;-56
2023/06/28 01:34:00;;;;;;;8.85;4.00;;;18.40;99.90;;;;;;5052081;28;20456;-50
2023/06/28 01:36:26;;;;;;;9.13;4.20;;;18.20;99.90;;;;;;5050849;28;20113;-50
2023/06/28 01:38:53;;;;;;;11.13;4.20;;;18.40;99.90;;;;;;5052057;28;20457;-49
2023/06/28 01:41:19;;;;;;;9.50;4.00;;;19.00;99.90;;;;;;5052076;28;20021;-50
2023/06/28 01:43:45;;;;;;;11.38;4.70;;;19.00;99.90;;;;;;5052011;28;20033;-52
2023/06/28 01:46:11;;;;;;;7.03;3.80;;;18.30;99.90;;;;;;5051829;28;20481;-53
2023/06/28 01:48:37;;;;;;;11.40;4.53;;;;;;;;;;5052134;28;20021;-48
2023/06/28 01:51:03;;;;;;;8.90;4.35;;;18.40;99.90;;;;;;5051749;28;20431;-49
2023/06/28 01:53:29;;;;;;;9.23;4.40;;;19.90;99.90;;;;;;5052064;28;20545;-52
2023/06/28 01:55:55;;;;;;;11.38;4.97;;;17.60;99.90;;;;;;5051852;28;20100;-45
2023/06/28 01:58:20;;;;;;;9.13;4.90;;;18.40;99.90;;;;;;5051781;28;20021;-51
2023/06/28 02:00:46;;;;;;;8.57;4.78;;;18.40;99.90;;;;;;5051770;28;20405;-48
2023/06/28 02:03:12;;;;;;;12.18;4.72;;;18.50;99.90;;;;;;5051856;28;20025;-54
2023/06/28 02:05:39;;;;;;;8.43;4.68;;;18.40;99.90;;;;;;5051793;28;20025;-53
2023/06/28 02:08:05;;;;;;;10.13;4.78;;;13.50;99.90;;;;;;5050163;28;20103;-48
2023/06/28 02:10:30;;;;;;;10.18;4.32;;;18.40;99.90;;;;;;5051528;28;20116;-45
2023/06/28 02:12:56;;;;;;;9.70;4.55;;;18.40;99.90;;;;;;5051526;28;20099;-47
2023/06/28 02:15:22;;;;;;;7.88;4.53;;;18.30;99.90;;;;;;5051320;28;20049;-45
2023/06/28 02:17:50;;;;;;;10.88;4.95;;;18.70;99.90;;;;;;5051430;28;20332;-48
2023/06/28 02:20:15;;;;;;;11.13;4.53;;;18.40;99.90;;;;;;5051208;28;20037;-50
2023/06/28 02:22:41;;;;;;;12.60;4.20;;;18.60;99.90;;;;;;5051329;28;20021;-45
2023/06/28 02:25:07;;;;;;;8.68;4.38;;;17.70;99.90;;;;;;5051320;28;20028;-47
2023/06/28 02:27:33;;;;;;;12.32;5.38;;;18.40;99.90;;;;;;5051081;28;20029;-45
2023/06/28 02:29:58;;;;;;;11.95;4.70;;;18.00;99.90;;;;;;5051177;28;20086;-45
2023/06/28 02:32:24;;;;;;;10.52;4.32;;;18.30;99.90;;;;;;5050221;28;20031;-50
2023/06/28 02:34:50;;;;;;;9.70;4.93;;;;;;;;;;5050973;28;20112;-51
2023/06/28 02:37:16;;;;;;;8.80;4.90;;;18.30;99.90;;;;;;5051007;28;20101;-48
2023/06/28 02:39:42;;;;;;;9.15;4.70;;;;;;;;;;5051060;28;20074;-51
2023/06/28 02:42:08;;;;;;;9.38;4.40;;;18.30;99.90;;;;;;5051090;28;20033;-53
2023/06/28 02:44:37;;;;;;;12.30;5.63;;;19.40;99.90;;;;;;5051175;28;20059;-48
2023/06/28 02:47:03;;;;;;;10.18;5.00;;;18.20;99.90;;;;;;5051103;28;20037;-44
2023/06/28 02:49:28;;;;;;;10.80;5.32;;;18.00;99.90;;;;;;5050926;28;20074;-44
2023/06/28 02:51:54;;;;;;;7.75;4.60;;;18.20;99.90;;;;;;5050959;28;20119;-44
2023/06/28 02:54:19;;;;;;;10.05;4.88;;;18.20;99.90;;;;;;5050741;28;20389;-44
2023/06/28 02:56:45;;;;;;;10.25;5.70;;;18.30;99.90;;;;;;5050707;28;20021;-44
2023/06/28 02:59:11;;;;;;;9.10;5.00;;;18.20;99.90;;;;;;5049335;28;20040;-45
2023/06/28 03:01:36;;;;;;;10.40;4.93;;;16.40;99.90;;;;;;5050821;28;20429;-45
2023/06/28 03:04:02;;;;;;;13.60;5.65;;;18.20;99.90;;;;;;5050642;28;20057;-47
2023/06/28 03:06:28;;;;;;;9.77;5.43;;;18.20;99.90;;;;;;5050615;28;20389;-45
2023/06/28 03:08:53;;;;;;;10.43;4.55;;;18.90;99.90;;;;;;5050708;28;20021;-45
2023/06/28 03:11:19;;;;;;;11.68;5.22;;;18.20;99.90;;;;;;5050299;28;20393;-45
2023/06/28 03:13:45;;;;;;;10.63;5.43;;;17.30;99.90;;;;;;5050630;28;20116;-46
2023/06/28 03:16:10;;;;;;;10.60;5.22;;;18.20;99.90;;;;;;5050282;28;20056;-50
2023/06/28 03:18:36;;;;;;;10.52;5.18;;;20.10;99.90;;;;;;5050619;28;20028;-52
2023/06/28 03:21:01;;;;;;;10.80;4.55;;;18.20;99.90;;;;;;5050391;28;20400;-48
2023/06/28 03:23:27;;;;;;;10.52;5.25;;;18.20;99.90;;;;;;5050372;28;20025;-45
2023/06/28 03:25:53;;;;;;;12.27;5.72;;;19.90;99.90;;;;;;5050488;28;20155;-48
2023/06/28 03:28:19;;;;;;;10.20;5.45;;;19.10;99.90;;;;;;5050696;28;20486;-50
2023/06/28 03:30:44;;;;;;;13.70;5.97;;;17.50;99.90;;;;;;5050215;28;20584;-46
2023/06/28 03:33:10;;;;;;;13.30;5.28;;;16.90;99.90;;;;;;5050516;28;20104;-44
2023/06/28 03:35:35;;;;;;;9.00;5.25;;;18.00;99.90;;;;;;5050191;28;20082;-45
2023/06/28 03:38:01;;;;;;;10.25;5.38;;;18.10;99.90;;;;;;5050394;28;20025;-50
2023/06/28 03:40:28;;;;;;;11.52;5.55;;;18.20;99.90;;;;;;5050229;28;20097;-45
2023/06/28 03:42:54;;;;;;;10.07;5.43;;;18.20;99.90;;;;;;5050379;28;20024;-46
2023/06/28 03:45:19;;;;;;;11.20;5.28;;;15.80;99.90;;;;;;5053385;28;20456;-53
2023/06/28 03:47:46;;;;;;;11.68;5.70;;;18.10;99.90;;;;;;5054161;28;20029;-51
2023/06/28 03:50:12;;;;;;;15.02;5.75;;;18.10;99.90;;;;;;5054270;28;20037;-48
2023/06/28 03:52:37;;;;;;;14.65;6.25;;;18.10;99.90;;;;;;5054045;28;20090;-48
2023/06/28 03:55:03;;;;;;;10.18;5.45;;;18.20;99.90;;;;;;5054193;28;20033;-51
2023/06/28 03:57:29;;;;;;;10.82;5.50;;;18.90;99.90;;;;;;5053952;28;20031;-50
2023/06/28 03:59:55;;;;;;;9.85;5.28;;;18.10;99.90;;;;;;5054292;28;20025;-51
2023/06/28 04:02:21;;;;;;;12.35;5.47;;;18.20;99.90;;;;;;5054136;28;20021;-50
2023/06/28 04:04:46;;;;;;;12.77;5.82;;;18.10;99.90;;;;;;5053907;28;20536;-49
2023/06/28 04:07:13;;;;;;;13.85;5.82;;;18.10;99.90;;;;;;5053898;28;20052;-53
2023/06/28 04:09:39;;;;;;;10.68;5.63;;;18.00;99.90;;;;;;5053624;28;20628;-49
2023/06/28 04:12:05;;;;;;;9.02;4.95;;;17.80;99.90;;;;;;5054068;28;20025;-45
2023/06/28 04:14:31;;;;;;;14.90;5.68;;;18.10;99.90;;;;;;5053592;28;20025;-54
2023/06/28 04:16:56;;;;;;;9.75;5.22;;;18.00;99.90;;;;;;5053717;28;20037;-47
2023/06/28 04:19:22;;;;;;;9.35;5.45;;;18.00;99.90;;;;;;5053780;28;20025;-52
2023/06/28 04:21:48;;;;;;;13.40;6.50;;;18.00;99.90;;;;;;5053487;28;20040;-46
2023/06/28 04:24:13;;;;;;;11.70;6.07;;;18.00;99.90;;;;;;5053592;28;20103;-48
2023/06/28 04:26:39;;;;;;;10.20;5.57;;;18.00;99.90;;;;;;5053633;28;20028;-47
2023/06/28 04:29:05;;;;;;;12.88;6.43;;;18.00;99.90;;;;;;5053266;28;20104;-45
2023/06/28 04:31:30;;;;;;;10.48;5.88;;;18.00;99.90;;;;;;5053409;28;20021;-49
2023/06/28 04:33:57;;;;;;;9.55;5.43;;;17.90;99.90;;;;;;5053456;28;20024;-48
2023/06/28 04:36:25;;;;;;;11.82;5.97;;;17.90;99.90;;;;;;5053490;28;20123;-51
2023/06/28 04:38:52;;;;;;;11.07;6.03;;;18.00;99.90;;;;;;5053158;28;20039;-50
2023/06/28 04:41:19;;;;;;;11.55;5.80;;;18.50;99.90;;;;;;5053357;28;20462;-48
2023/06/28 04:43:45;;;;;;;13.75;6.22;;;18.00;99.90;;;;;;5053274;28;20047;-45
2023/06/28 04:46:11;;;;;;;11.30;6.03;;;18.00;99.90;;;;;;5053313;28;20099;-48
2023/06/28 04:48:38;;;;;;;11.38;6.30;;;18.10;99.90;;;;;;5053268;28;20028;-53
2023/06/28 04:51:04;;;;;;;12.68;6.70;;;18.10;99.90;;;;;;5052904;28;20498;-51
2023/06/28 04:53:30;;;;;;;11.45;6.25;;;18.10;99.90;;;;;;5053008;28;20067;-45
2023/06/28 04:55:55;;;;;;;9.20;5.40;;;18.10;99.90;;;;;;5052060;28;20116;-50
2023/06/28 04:58:22;;;;;;;14.07;6.18;;;18.10;99.90;;;;;;5053245;28;20021;-49
2023/06/28 05:00:47;;;;;;;11.40;5.32;;;18.10;99.90;;;;;;5053000;28;20076;-49
2023/06/28 05:03:15;;;;;;;10.70;5.82;;;18.10;99.90;;;;;;5052829;28;20041;-45
2023/06/28 05:05:40;;;;;;;15.50;5.80;;;18.10;99.90;;;;;;5052825;28;20037;-45
2023/06/28 05:08:07;;;;;;;9.65;5.78;;;18.60;99.90;;;;;;5052779;28;20032;-46
2023/06/28 05:10:33;;;;;;;10.25;5.70;;;18.10;99.90;;;;;;5052947;28;20071;-48
2023/06/28 05:12:59;;;;;;;12.52;6.32;;;19.00;99.90;;;;;;5052733;28;20052;-49
2023/06/28 05:15:25;;;;;;;11.93;6.03;;;18.30;99.90;;;;;;5052575;28;20049;-52
2023/06/28 05:17:51;;;;;;;12.35;6.85;;;18.30;99.90;;;;;;5052681;28;20021;-47
2023/06/28 05:20:17;;;;;;;14.32;6.90;;;18.40;99.90;;;;;;5052471;28;20488;-49
2023/06/28 05:22:49;;;;;;;16.60;6.97;;;19.20;99.90;;;;;;5052655;28;20017;-46
2023/06/28 05:25:16;;;;;;;13.45;6.97;;;18.50;99.90;;;;;;5052636;28;20025;-49
2023/06/28 05:27:41;;;;;;;14.60;7.03;;;18.90;99.90;;;;;;5052676;28;20108;-44
2023/06/28 05:30:08;;;;;;;13.55;6.63;;;18.70;99.90;;;;;;5052464;28;20123;-45
2023/06/28 05:32:34;;;;;;;13.07;7.18;;;19.70;99.90;;;;;;5052294;28;20017;-45
2023/06/28 05:35:02;;;;;;;13.90;7.05;;;18.80;99.90;;;;;;5051090;28;20036;-57
2023/06/28 05:37:28;;;;;;;13.52;6.63;;;19.00;99.90;;;;;;5050773;28;20028;-46
2023/06/28 05:39:54;;;;;;;13.63;7.05;;;18.70;99.90;;;;;;5052400;28;20029;-52
2023/06/28 05:42:21;;;;;;;14.40;6.65;;;19.20;99.90;;;;;;5052039;28;20032;-45
2023/06/28 05:44:47;;;;;;;13.30;5.60;;;19.20;99.90;;;;;;5052138;28;20016;-47
2023/06/28 05:47:12;;;;;;;14.10;7.22;;;19.40;99.90;;;;;;5052212;28;20091;-52
2023/06/28 05:49:39;;;;;;;14.00;6.85;;;19.40;99.90;;;;;;5052088;28;20029;-49
2023/06/28 05:52:05;;;;;;;13.38;6.63;;;21.50;99.90;;;;;;5052276;28;20033;-51
2023/06/28 05:54:31;;;;;;;10.98;6.22;;;19.70;99.90;;;;;;5051862;28;20502;-54
2023/06/28 05:56:57;;;;;;;16.95;6.78;;;19.80;99.90;;;;;;5051934;28;20100;-45
2023/06/28 05:59:23;;;;;;;14.10;6.63;;;;;;;;;;5051784;28;20033;-56
2023/06/28 06:01:49;;;;;;;12.63;6.85;;;20.00;99.90;;;;;;5051813;28;20474;-49
2023/06/28 06:04:14;;;;;;;14.77;7.07;;;20.20;99.90;;;;;;5051694;28;20083;-45
2023/06/28 06:06:40;;;;;;;15.82;7.13;;;20.30;99.90;;;;;;5051482;28;20021;-52
2023/06/28 06:09:05;;;;;;;14.23;6.43;;;20.50;99.90;;;;;;5051895;28;20025;-46
2023/06/28 06:11:31;;;;;;;13.68;6.15;;;20.60;99.90;;;;;;5051511;28;20635;-49
2023/06/28 06:13:57;;;;;;;15.10;7.32;;;20.60;99.90;;;;;;5051632;28;20029;-52
2023/06/28 06:16:23;;;;;;;12.80;5.95;;;;;;;;;;5051320;28;20505;-48
2023/06/28 06:18:48;;;;;;;15.85;6.75;;;20.50;99.90;;;;;;5051509;28;20032;-46
2023/06/28 06:21:15;;;;;;;14.63;6.40;;;19.90;99.90;;;;;;5051352;28;20103;-50
2023/06/28 06:23:40;;;;;;;11.30;6.30;;;20.50;99.90;;;;;;5051329;28;20028;-50
2023/06/28 06:26:06;;;;;;;12.65;6.40;;;20.40;99.90;;;;;;5051309;28;20090;-45
2023/06/28 06:28:32;;;;;;;15.07;6.93;;;20.40;99.90;;;;;;5051429;28;20021;-50
2023/06/28 06:30:57;;;;;;;12.52;5.75;;;20.40;99.90;;;;;;5051130;28;20040;-50
2023/06/28 06:33:23;;;;;;;10.70;6.03;;;20.40;99.90;;;;;;5051548;28;20108;-54
2023/06/28 06:35:49;;;;;;;11.07;5.90;;;20.40;99.90;;;;;;5050963;28;20408;-47
2023/06/28 06:38:15;;;;;;;13.75;6.57;;;20.50;99.90;;;;;;5051361;28;20132;-53
2023/06/28 06:40:40;;;;;;;13.25;6.30;;;20.40;99.90;;;;;;5051112;28;20669;-52
2023/06/28 06:43:06;;;;;;;12.52;6.85;;;18.20;99.90;;;;;;5051167;28;20033;-48
2023/06/28 06:45:32;;;;;;;11.55;5.85;;;20.40;99.90;;;;;;5051019;28;20091;-51
2023/06/28 06:47:57;;;;;;;14.85;6.38;;;22.10;99.90;;;;;;5050851;28;20378;-45
2023/06/28 06:50:23;;;;;;;13.45;5.88;;;20.50;99.90;;;;;;5029677;28;20049;-45
2023/06/28 06:52:50;;;;;;;10.73;6.43;;;20.50;99.90;;;;;;5048732;28;20028;-46
2023/06/28 06:55:16;;;;;;;12.05;6.53;;;20.60;99.90;;;;;;5050977;28;20036;-48
2023/06/28 06:57:41;;;;;;;16.25;7.10;;;20.60;99.90;;;;;;5050752;28;20029;-45
2023/06/28 07:00:08;;;;;;;12.23;6.60;;;20.80;99.90;;;;;;5050807;28;20033;-46
2023/06/28 07:02:34;;;;;;;10.25;6.28;;;21.10;99.90;;;;;;5050826;28;20028;-46
2023/06/28 07:05:00;;;;;;;13.60;6.32;;;21.60;99.90;;;;;;5050856;28;20029;-48
2023/06/28 07:07:25;;;;;;;12.13;6.35;;;22.10;99.90;;;;;;5050762;28;20469;-51
2023/06/28 07:09:51;;;;;;;14.48;6.50;;;22.40;99.90;;;;;;5050479;28;20075;-54
2023/06/28 07:12:17;;;;;;;11.10;5.95;;;22.70;99.90;;;;;;5050655;28;20051;-48
2023/06/28 07:14:42;;;;;;;14.43;6.65;;;22.90;99.90;;;;;;5050034;28;20048;-51
2023/06/28 07:17:09;;;;;;;14.48;6.80;;;23.00;99.90;;;;;;5050609;28;20032;-50
2023/06/28 07:19:35;;;;;;;12.95;6.60;;;23.00;99.90;;;;;;5049746;28;20048;-48
2023/06/28 07:22:02;;;;;;;12.68;6.55;;;23.00;99.90;;;;;;5050437;28;20057;-49
2023/06/28 07:24:28;;;;;;;14.55;6.28;;;23.30;99.90;;;;;;5050319;28;20508;-48
2023/06/28 07:26:53;;;;;;;10.90;5.72;;;23.70;99.90;;;;;;5050288;28;20104;-47
2023/06/28 07:29:19;;;;;;;11.55;5.80;;;24.20;99.90;;;;;;5050186;28;20078;-45
2023/06/28 07:31:44;;;;;;;10.90;5.93;;;24.50;99.90;;;;;;5050480;28;20048;-51
2023/06/28 07:34:10;;;;;;;11.82;5.95;;;24.70;99.90;;;;;;5048997;28;20021;-53
2023/06/28 07:36:36;;;;;;;8.95;5.13;;;25.30;99.90;;;;;;5050374;28;20024;-52
2023/06/28 07:39:01;;;;;;;11.63;5.93;;;24.90;99.90;;;;;;5050170;28;20028;-49
2023/06/28 07:41:27;;;;;;;14.48;5.90;;;24.90;99.90;;;;;;5050082;28;20025;-49
2023/06/28 07:43:52;;;;;;;10.52;5.38;;;25.10;99.90;;;;;;5050251;28;20033;-47
2023/06/28 07:46:18;;;;;;;11.85;6.80;;;25.40;99.90;;;;;;5050290;28;20033;-50
2023/06/28 07:48:49;;;;;;;7.88;5.25;;;25.60;99.90;;;;;;5050358;28;20027;-54
2023/06/28 07:51:15;;;;;;;10.30;6.15;;;26.00;99.90;;;;;;5050060;28;20397;-45
2023/06/28 07:53:42;;;;;;;12.20;5.85;;;26.20;99.90;;;;;;5050220;28;20021;-48
2023/06/28 07:56:08;;;;;;;10.85;5.65;;;26.10;99.90;;;;;;5050128;28;20119;-50
2023/06/28 07:58:36;;;;;;;12.93;5.72;;;26.00;99.90;;;;;;5050207;28;20033;-52
2023/06/28 08:01:02;;;;;;;9.20;5.15;;;25.50;99.90;;;;;;5050033;28;20493;-51
2023/06/28 08:03:27;;;;;;;12.23;6.55;;;25.20;99.90;;;;;;5050250;28;20071;-47
2023/06/28 08:05:53;;;;;;;12.80;6.18;;;24.90;99.90;;;;;;5050106;28;20053;-46
2023/06/28 08:08:19;;;;;;;11.38;6.30;;;24.70;99.90;;;;;;5050025;28;20017;-47
2023/06/28 08:10:44;;;;;;;10.57;5.95;;;24.50;99.90;;;;;;5049972;28;20090;-53
2023/06/28 08:13:10;;;;;;;9.18;5.82;;;24.40;99.90;;;;;;5049749;28;20017;-53
2023/06/28 08:15:38;;;;;;;13.25;6.05;;;24.50;99.90;;;;;;5050123;28;20051;-49
2023/06/28 08:18:05;;;;;;;10.60;5.80;;;23.50;99.90;;;;;;5049851;28;20466;-47
2023/06/28 08:20:31;;;;;;;11.65;5.75;;;24.50;99.90;;;;;;5050058;28;20033;-50
2023/06/28 08:22:57;;;;;;;11.50;6.43;;;24.30;99.90;;;;;;5050004;28;20028;-55
2023/06/28 08:25:22;;;;;;;10.45;5.57;;;24.10;99.90;;;;;;5050043;28;20501;-49
2023/06/28 08:27:48;;;;;;;10.75;5.53;;;24.00;99.90;;;;;;5049850;28;20493;-49
2023/06/28 08:30:14;;;;;;;10.75;5.63;;;23.90;99.90;;;;;;5051124;28;20079;-48
2023/06/28 08:32:40;;;;;;;12.23;6.07;;;23.80;99.90;;;;;;5039501;28;20047;-47
2023/06/28 08:35:07;;;;;;;9.43;5.68;;;23.70;99.90;;;;;;5053706;28;20100;-48
2023/06/28 08:37:34;;;;;;;10.27;5.40;;;23.50;99.90;;;;;;5053145;28;20025;-52
2023/06/28 08:40:01;;;;;;;14.38;6.90;;;23.40;99.90;;;;;;5053488;28;20025;-49
2023/06/28 08:42:29;;;;;;;9.40;6.28;;;23.20;99.90;;;;;;5053228;28;20037;-49
2023/06/28 08:44:57;;;;;;;11.10;6.35;;;23.10;99.90;;;;;;5053562;28;20128;-49
2023/06/28 08:47:27;;;;;;;13.17;6.10;;;22.90;99.90;;;;;;5053409;28;20027;-50
2023/06/28 08:49:54;;;;;;;10.23;5.88;;;22.80;99.90;;;;;;5053370;28;20060;-54
2023/06/28 08:52:22;;;;;;;11.40;6.10;;;22.70;99.90;;;;;;5052070;28;20025;-49
2023/06/28 08:54:48;;;;;;;12.15;5.90;;;22.60;99.90;;;;;;5053091;28;20504;-47
2023/06/28 08:57:16;;;;;;;13.43;6.28;;;22.60;99.90;;;;;;5053200;28;20029;-51
2023/06/28 08:59:42;;;;;;;14.23;6.63;;;22.60;99.90;;;;;;5052995;28;20032;-53
2023/06/28 09:02:09;;;;;;;13.38;6.85;;;22.70;99.90;;;;;;5053302;28;20055;-50
2023/06/28 09:04:35;;;;;;;14.48;6.40;;;22.90;99.90;;;;;;5052838;28;20013;-52
2023/06/28 09:07:02;;;;;;;12.45;5.88;;;23.00;99.90;;;;;;5052982;28;20116;-52
2023/06/28 09:09:29;;;;;;;13.70;7.72;;;23.20;99.90;;;;;;5052637;28;20060;-45
2023/06/28 09:11:55;;;;;;;11.90;6.80;;;23.30;99.90;;;;;;5052798;28;20112;-53
2023/06/28 09:14:20;;;;;;;11.80;5.72;;;23.40;99.90;;;;;;5052851;28;20092;-47
2023/06/28 09:16:46;;;;;;;11.93;6.28;;;23.90;99.90;;;;;;5052507;28;20045;-54
2023/06/28 09:19:11;;;;;;;13.50;6.20;;;23.70;99.90;;;;;;5052653;28;20104;-53
2023/06/28 09:21:39;;;;;;;12.18;6.75;;;23.80;99.90;;;;;;5048243;28;20078;-48
2023/06/28 09:24:10;;;;;;;14.55;7.50;;;23.90;99.90;;;;;;5050952;28;20028;-51
2023/06/28 09:26:36;;;;;;;9.70;6.07;;;24.80;99.90;;;;;;5052610;28;20020;-48
2023/06/28 09:29:10;;;;;;;9.23;6.18;;;24.00;99.90;;;;;;5052473;28;20491;-49
2023/06/28 09:31:47;;;;;;;12.18;6.53;;;24.20;99.90;;;;;;5052278;28;20029;-42
2023/06/28 09:34:12;;;;;;;12.23;7.05;;;24.10;99.90;;;;;;5052375;28;20024;-44
2023/06/28 09:36:38;;;;;;;11.32;6.13;;;24.10;99.90;;;;;;5052191;28;20029;-48
2023/06/28 09:39:09;;;;;;;10.95;6.07;;;23.90;99.90;;;;;;5052331;28;20029;-43
2023/06/28 09:41:42;;;;;;;12.98;7.47;;;23.70;99.90;;;;;;5051766;28;20060;-48
2023/06/28 09:44:11;;;;;;;13.52;6.95;;;23.60;99.90;;;;;;5052038;28;20071;-50
2023/06/28 09:46:45;;;;;;;9.45;6.13;;;23.50;99.90;;;;;;5052245;28;20070;-49
2023/06/28 09:49:21;;;;;;;13.27;7.00;;;23.50;99.90;;;;;;5052111;28;20071;-52
2023/06/28 09:52:03;;;;;;;10.80;6.10;;;23.30;99.90;;;;;;5052168;28;20033;-48
2023/06/28 09:54:45;;;;;;;10.00;5.90;;;23.70;99.90;;;;;;5052140;28;20377;-54
2023/06/28 09:57:11;;;;;;;8.05;5.18;;;23.50;99.90;;;;;;5052019;28;20021;-48
2023/06/28 09:59:39;;;;;;;11.13;6.57;;;23.70;99.90;;;;;;5051927;28;20108;-44
2023/06/28 10:02:07;;;;;;;10.93;6.03;;;23.70;99.90;;;;;;5051906;28;20032;-47
2023/06/28 10:04:38;;;;;;;11.55;6.35;;;22.70;99.90;;;;;;5051884;28;20028;-49
2023/06/28 10:07:05;;;;;;;8.95;5.18;;;24.30;99.90;;;;;;5051941;28;20032;-46
2023/06/28 10:09:39;;;;;;;8.75;5.47;;;23.60;99.90;;;;;;5051569;28;20021;-43
2023/06/28 10:12:20;;;;;;;10.55;5.43;;;23.70;99.90;;;;;;5050919;28;20091;-50
2023/06/28 10:14:54;;;;;;;10.85;5.70;;;21.90;99.90;;;;;;5050129;28;20021;-43
2023/06/28 10:17:20;;;;;;;9.88;4.88;;;23.50;99.90;;;;;;5051692;28;20078;-49
2023/06/28 10:19:48;;;;;;;9.52;5.25;;;23.40;99.90;;;;;;5051443;28;20074;-47
2023/06/28 10:22:15;;;;;;;9.10;4.97;;;23.20;99.90;;;;;;5051289;28;20029;-43
2023/06/28 10:24:42;;;;;;;7.75;4.63;;;22.80;99.90;;;;;;5051426;28;20474;-43
2023/06/28 10:27:08;;;;;;;12.15;6.30;;;22.80;99.90;;;;;;5051395;28;20065;-44
2023/06/28 10:29:35;;;;;;;12.38;5.70;;;22.70;99.90;;;;;;5051380;28;20033;-44
2023/06/28 10:32:02;;;;;;;9.77;5.50;;;22.20;99.90;;;;;;5051440;28;20039;-47
2023/06/28 10:34:28;;;;;;;10.95;5.20;;;22.70;99.90;;;;;;5051379;28;20028;-44
2023/06/28 10:36:56;;;;;;;16.00;5.63;;;22.70;99.90;;;;;;5051265;28;20220;-45
2023/06/28 10:39:22;;;;;;;10.73;5.72;;;22.70;99.90;;;;;;5051300;28;20024;-44
2023/06/28 10:41:57;;;;;;;9.82;5.72;;;22.90;99.90;;;;;;5049827;28;20425;-42
2023/06/28 10:44:23;;;;;;;11.13;5.47;;;22.90;99.90;;;;;;5048818;28;20079;-44
2023/06/28 10:47:11;;;;;;;11.68;5.80;;;22.90;99.90;;;;;;5051025;28;20030;-49
2023/06/28 10:49:41;;;;;;;10.73;5.47;;;20.70;99.90;;;;;;5050741;28;20436;-47
2023/06/28 10:52:13;;;;;;;;;;;23.10;99.90;;;;;;5051556;28;20277;-47
2023/06/28 10:54:39;;;;;;;8.82;4.72;;;23.20;99.90;;;;;;5049836;28;19905;-50
2023/06/28 10:57:10;;;;;;;11.27;5.93;;;23.40;99.90;;;;;;5050887;28;20031;-43
2023/06/28 10:59:40;;;;;;;11.00;5.78;;;23.60;99.90;;;;;;5050664;28;20017;-49
2023/06/28 11:02:06;;;;;;;11.77;5.80;;;24.00;99.90;;;;;;5050711;28;20029;-43
2023/06/28 11:04:32;;;;;;;8.80;5.47;;;24.60;99.90;;;;;;5050780;28;20071;-46
2023/06/28 11:07:06;;;;;;;12.80;5.53;;;25.10;99.90;;;;;;5050754;28;20401;-44
2023/06/28 11:09:32;;;;;;;9.98;4.72;;;25.50;99.90;;;;;;5050541;28;20418;-46
2023/06/28 11:11:59;;;;;;;8.13;4.88;;;25.80;99.90;;;;;;5050482;28;20036;-49
2023/06/28 11:14:27;;;;;;;11.40;5.70;;;26.00;99.90;;;;;;5050474;28;20028;-45
2023/06/28 11:17:12;;;;;;;9.27;5.33;;;25.90;99.90;;;;;;5050448;28;20052;-43
2023/06/28 11:19:39;;;;;;;10.98;5.63;;;25.60;99.90;;;;;;5050517;28;20378;-41
2023/06/28 11:22:05;;;;;;;11.88;6.18;;;25.50;99.90;;;;;;5050517;28;20121;-44
2023/06/28 11:24:37;;;;;;;10.32;5.32;;;24.90;99.90;;;;;;5049115;28;20032;-45
2023/06/28 11:27:12;;;;;;;10.85;5.72;;;25.00;99.90;;;;;;5050211;28;20150;-54
2023/06/28 11:29:58;;;;;;;10.10;5.78;;;24.50;99.90;;;;;;5050407;28;20533;-48
2023/06/28 11:32:31;;;;;;;10.80;6.07;;;24.30;99.90;;;;;;5050265;28;20032;-49
2023/06/28 11:34:58;;;;;;;12.13;5.85;;;25.50;99.90;;;;;;5050423;28;20013;-46
2023/06/28 11:37:24;;;;;;;16.27;6.45;;;23.90;99.90;;;;;;5050264;28;20555;-45
2023/06/28 11:39:50;;;;;;;10.63;5.78;;;23.20;99.90;;;;;;5050294;28;20067;-57
2023/06/28 11:42:19;;;;;;;12.13;6.05;;;23.60;99.90;;;;;;5050273;28;20071;-51
2023/06/28 11:44:50;;;;;;;11.77;6.13;;;23.60;99.90;;;;;;5050265;28;20354;-46
2023/06/28 11:47:18;;;;;;;10.95;6.28;;;22.10;99.90;;;;;;5050134;28;20048;-48
2023/06/28 11:49:44;;;;;;;10.93;5.75;;;23.50;99.90;;;;;;5050192;28;20108;-49
2023/06/28 11:52:10;;;;;;;13.60;6.35;;;23.20;99.90;;;;;;5050242;28;20736;-52
2023/06/28 11:54:35;;;;;;;11.60;6.22;;;23.00;99.90;;;;;;5050089;28;20219;-48
2023/06/28 11:57:01;;;;;;;10.52;6.60;;;23.30;99.90;;;;;;5050301;28;20389;-50
2023/06/28 11:59:29;;;;;;;12.80;6.85;;;22.60;99.90;;;;;;5050057;28;20558;-50
2023/06/28 12:02:09;;;;;;;13.80;6.90;;;22.60;99.90;;;;;;5050301;28;20025;-50
2023/06/28 12:04:36;;;;;;;12.35;6.05;;;22.40;99.90;;;;;;5049876;28;20033;-47
2023/06/28 12:07:04;;;;;;;12.40;6.38;;;22.50;99.90;;;;;;5054164;28;20039;-44
2023/06/28 12:09:31;;;;;;;13.77;6.65;;;22.60;99.90;;;;;;5053744;28;20485;-42
2023/06/28 12:11:58;;;;;;;14.38;6.55;;;22.60;99.90;;;;;;5053982;28;20033;-42
2023/06/28 12:14:25;;;;;;;13.65;6.65;;;22.60;99.90;;;;;;5053956;28;20074;-41
2023/06/28 12:16:51;;;;;;;9.77;5.85;;;22.70;99.90;;;;;;5053403;28;20387;-42
2023/06/28 12:19:17;;;;;;;10.93;5.80;;;22.70;99.90;;;;;;5053808;28;20052;-41
2023/06/28 12:21:44;;;;;;;8.60;5.40;;;22.70;99.90;;;;;;5053859;28;20067;-48
2023/06/28 12:24:12;;;;;;;12.27;5.80;;;22.90;99.90;;;;;;5053601;28;20477;-42
2023/06/28 12:26:39;;;;;;;11.80;6.13;;;23.00;99.90;;;;;;5053600;28;20127;-47
2023/06/28 12:29:07;;;;;;;13.23;6.22;;;23.20;99.90;;;;;;5053563;28;20370;-48
2023/06/28 12:31:43;;;;;;;11.02;5.20;;;23.30;99.90;;;;;;5053414;28;20036;-52
2023/06/28 12:34:08;;;;;;;12.93;5.90;;;23.50;99.90;;;;;;5053270;28;20017;-43
2023/06/28 12:36:34;;;;;;;10.52;5.53;;;23.60;99.90;;;;;;5054272;28;20087;-46
2023/06/28 12:39:00;;;;;;;9.88;5.20;;;22.00;99.90;;;;;;5051267;28;20032;-59